Twijzelerheide, Netherlands
Current Conditions -  °F | °C
As of 7:55 PM on Friday 21 Nov 2014 (Local Time) from EHLW Reporting Station
Overcast Overcast  
Wind Chill: 34°   Ceiling: 14000
Heat Index: 41°   Visibility: 6mi
Dew Point: 37°   Wind: 12mph
Humidity: 87%   Direction: 110°ESE
Pressure: 30.15"   Gusts: NA
Location:  53.24°N, 6.05°E
Report Text: EHLW 211855Z AUTO 11010KT 9999 OVC140 05/03 Q1021 BLU
Loading
Personal Weather Stations






























Interactive Weather Map New forecast layout! Learn more

10-Day Weather Forecast

Advertisements
Track Severe Weather on mobile